sensor_id;sensor_type;location;lat;lon;timestamp;P1;durP1;ratioP1;P2;durP2;ratioP2
74656;SDS011;63185;45.642;13.764;2023-02-12T00:02:26;34.35;;;17.60;;
74656;SDS011;63185;45.642;13.764;2023-02-12T00:04:52;36.47;;;18.13;;
74656;SDS011;63185;45.642;13.764;2023-02-12T00:07:19;39.05;;;18.05;;
74656;SDS011;63185;45.642;13.764;2023-02-12T00:09:46;33.33;;;17.58;;
74656;SDS011;63185;45.642;13.764;2023-02-12T00:12:13;29.95;;;16.58;;
74656;SDS011;63185;45.642;13.764;2023-02-12T00:14:39;32.75;;;16.25;;
74656;SDS011;63185;45.642;13.764;2023-02-12T00:17:06;33.67;;;16.80;;
74656;SDS011;63185;45.642;13.764;2023-02-12T00:19:33;30.50;;;15.93;;
74656;SDS011;63185;45.642;13.764;2023-02-12T00:21:59;30.10;;;16.25;;
74656;SDS011;63185;45.642;13.764;2023-02-12T00:24:25;36.58;;;18.75;;
74656;SDS011;63185;45.642;13.764;2023-02-12T00:26:52;35.42;;;18.75;;
74656;SDS011;63185;45.642;13.764;2023-02-12T00:29:19;34.25;;;18.65;;
74656;SDS011;63185;45.642;13.764;2023-02-12T00:31:45;32.50;;;17.25;;
74656;SDS011;63185;45.642;13.764;2023-02-12T00:34:11;34.58;;;16.92;;
74656;SDS011;63185;45.642;13.764;2023-02-12T00:36:38;34.67;;;18.15;;
74656;SDS011;63185;45.642;13.764;2023-02-12T00:39:04;34.60;;;17.33;;
74656;SDS011;63185;45.642;13.764;2023-02-12T00:41:31;36.42;;;17.58;;
74656;SDS011;63185;45.642;13.764;2023-02-12T00:43:57;37.80;;;18.30;;
74656;SDS011;63185;45.642;13.764;2023-02-12T00:46:23;35.20;;;16.98;;
74656;SDS011;63185;45.642;13.764;2023-02-12T00:48:50;35.83;;;16.67;;
74656;SDS011;63185;45.642;13.764;2023-02-12T00:51:17;32.33;;;17.52;;
74656;SDS011;63185;45.642;13.764;2023-02-12T00:53:43;32.83;;;18.08;;
74656;SDS011;63185;45.642;13.764;2023-02-12T00:56:10;35.20;;;18.55;;
74656;SDS011;63185;45.642;13.764;2023-02-12T00:58:37;38.63;;;18.25;;
74656;SDS011;63185;45.642;13.764;2023-02-12T01:01:03;33.67;;;18.55;;
74656;SDS011;63185;45.642;13.764;2023-02-12T01:03:29;32.50;;;16.50;;
74656;SDS011;63185;45.642;13.764;2023-02-12T01:05:56;36.58;;;18.38;;
74656;SDS011;63185;45.642;13.764;2023-02-12T01:08:22;31.80;;;17.63;;
74656;SDS011;63185;45.642;13.764;2023-02-12T01:10:55;34.38;;;16.95;;
74656;SDS011;63185;45.642;13.764;2023-02-12T01:13:24;34.03;;;16.95;;
74656;SDS011;63185;45.642;13.764;2023-02-12T01:16:05;34.60;;;18.08;;
74656;SDS011;63185;45.642;13.764;2023-02-12T01:18:33;36.60;;;18.30;;
74656;SDS011;63185;45.642;13.764;2023-02-12T01:21:01;34.85;;;17.83;;
74656;SDS011;63185;45.642;13.764;2023-02-12T01:23:32;32.38;;;18.05;;
74656;SDS011;63185;45.642;13.764;2023-02-12T01:25:58;30.83;;;17.33;;
74656;SDS011;63185;45.642;13.764;2023-02-12T01:28:25;32.90;;;17.73;;
74656;SDS011;63185;45.642;13.764;2023-02-12T01:30:51;32.47;;;18.23;;
74656;SDS011;63185;45.642;13.764;2023-02-12T01:33:18;35.72;;;18.38;;
74656;SDS011;63185;45.642;13.764;2023-02-12T01:35:45;33.78;;;18.60;;
74656;SDS011;63185;45.642;13.764;2023-02-12T01:38:11;35.17;;;18.17;;
74656;SDS011;63185;45.642;13.764;2023-02-12T01:40:38;34.38;;;17.48;;
74656;SDS011;63185;45.642;13.764;2023-02-12T01:43:05;30.80;;;16.80;;
74656;SDS011;63185;45.642;13.764;2023-02-12T01:48:01;31.65;;;15.82;;
74656;SDS011;63185;45.642;13.764;2023-02-12T01:50:29;32.88;;;16.33;;
74656;SDS011;63185;45.642;13.764;2023-02-12T01:52:55;31.05;;;16.38;;
74656;SDS011;63185;45.642;13.764;2023-02-12T01:55:24;29.40;;;16.02;;
74656;SDS011;63185;45.642;13.764;2023-02-12T01:57:50;29.60;;;15.55;;
74656;SDS011;63185;45.642;13.764;2023-02-12T02:00:19;32.95;;;16.13;;
74656;SDS011;63185;45.642;13.764;2023-02-12T02:02:48;31.95;;;15.93;;
74656;SDS011;63185;45.642;13.764;2023-02-12T02:08:14;29.67;;;15.55;;
74656;SDS011;63185;45.642;13.764;2023-02-12T02:10:41;30.50;;;14.80;;
74656;SDS011;63185;45.642;13.764;2023-02-12T02:13:07;28.92;;;15.48;;
74656;SDS011;63185;45.642;13.764;2023-02-12T02:15:53;29.63;;;15.05;;
74656;SDS011;63185;45.642;13.764;2023-02-12T02:24:33;30.60;;;15.90;;
74656;SDS011;63185;45.642;13.764;2023-02-12T02:33:05;29.83;;;15.93;;
74656;SDS011;63185;45.642;13.764;2023-02-12T02:35:42;34.45;;;16.20;;
74656;SDS011;63185;45.642;13.764;2023-02-12T02:38:33;29.15;;;15.05;;
74656;SDS011;63185;45.642;13.764;2023-02-12T02:41:18;30.58;;;14.75;;
74656;SDS011;63185;45.642;13.764;2023-02-12T02:43:55;27.08;;;14.95;;
74656;SDS011;63185;45.642;13.764;2023-02-12T02:46:33;28.30;;;14.32;;
74656;SDS011;63185;45.642;13.764;2023-02-12T02:49:10;29.45;;;14.10;;
74656;SDS011;63185;45.642;13.764;2023-02-12T02:51:44;26.08;;;13.85;;
74656;SDS011;63185;45.642;13.764;2023-02-12T02:54:20;24.90;;;13.48;;
74656;SDS011;63185;45.642;13.764;2023-02-12T02:56:54;25.98;;;12.88;;
74656;SDS011;63185;45.642;13.764;2023-02-12T02:59:28;23.65;;;13.05;;
74656;SDS011;63185;45.642;13.764;2023-02-12T03:02:08;23.67;;;12.30;;
74656;SDS011;63185;45.642;13.764;2023-02-12T03:04:42;23.42;;;12.07;;
74656;SDS011;63185;45.642;13.764;2023-02-12T03:10:16;23.48;;;11.80;;
74656;SDS011;63185;45.642;13.764;2023-02-12T03:15:27;24.92;;;11.93;;
74656;SDS011;63185;45.642;13.764;2023-02-12T03:18:10;21.42;;;11.57;;
74656;SDS011;63185;45.642;13.764;2023-02-12T03:20:46;20.80;;;11.35;;
74656;SDS011;63185;45.642;13.764;2023-02-12T03:23:27;19.73;;;10.63;;
74656;SDS011;63185;45.642;13.764;2023-02-12T03:26:11;20.00;;;10.07;;
74656;SDS011;63185;45.642;13.764;2023-02-12T03:28:45;19.27;;;9.50;;
74656;SDS011;63185;45.642;13.764;2023-02-12T03:36:42;17.67;;;9.38;;
74656;SDS011;63185;45.642;13.764;2023-02-12T03:39:21;20.00;;;9.48;;
74656;SDS011;63185;45.642;13.764;2023-02-12T03:42:09;19.95;;;8.88;;
74656;SDS011;63185;45.642;13.764;2023-02-12T03:44:45;16.42;;;8.15;;
74656;SDS011;63185;45.642;13.764;2023-02-12T03:47:31;16.67;;;8.07;;
74656;SDS011;63185;45.642;13.764;2023-02-12T03:55:41;18.45;;;8.80;;
74656;SDS011;63185;45.642;13.764;2023-02-12T03:58:12;18.08;;;9.00;;
74656;SDS011;63185;45.642;13.764;2023-02-12T04:00:44;18.15;;;9.52;;
74656;SDS011;63185;45.642;13.764;2023-02-12T04:03:11;19.65;;;9.70;;
74656;SDS011;63185;45.642;13.764;2023-02-12T04:05:38;18.35;;;9.63;;
74656;SDS011;63185;45.642;13.764;2023-02-12T04:08:07;18.02;;;9.00;;
74656;SDS011;63185;45.642;13.764;2023-02-12T04:13:41;18.45;;;9.15;;
74656;SDS011;63185;45.642;13.764;2023-02-12T04:16:34;19.42;;;9.60;;
74656;SDS011;63185;45.642;13.764;2023-02-12T04:19:12;19.35;;;9.15;;
74656;SDS011;63185;45.642;13.764;2023-02-12T04:22:04;20.45;;;9.95;;
74656;SDS011;63185;45.642;13.764;2023-02-12T04:25:12;18.25;;;8.88;;
74656;SDS011;63185;45.642;13.764;2023-02-12T04:27:42;17.77;;;9.65;;
74656;SDS011;63185;45.642;13.764;2023-02-12T04:30:34;23.75;;;11.10;;
74656;SDS011;63185;45.642;13.764;2023-02-12T04:33:17;22.73;;;10.60;;
74656;SDS011;63185;45.642;13.764;2023-02-12T04:35:48;20.15;;;10.93;;
74656;SDS011;63185;45.642;13.764;2023-02-12T04:38:27;22.23;;;11.15;;
74656;SDS011;63185;45.642;13.764;2023-02-12T04:41:05;26.05;;;11.82;;
74656;SDS011;63185;45.642;13.764;2023-02-12T04:43:33;26.73;;;13.73;;
74656;SDS011;63185;45.642;13.764;2023-02-12T04:46:02;26.20;;;14.20;;
74656;SDS011;63185;45.642;13.764;2023-02-12T04:48:30;23.10;;;12.23;;
74656;SDS011;63185;45.642;13.764;2023-02-12T04:50:58;26.90;;;13.40;;
74656;SDS011;63185;45.642;13.764;2023-02-12T04:53:25;23.40;;;12.77;;
74656;SDS011;63185;45.642;13.764;2023-02-12T04:55:51;23.05;;;12.70;;
74656;SDS011;63185;45.642;13.764;2023-02-12T04:58:19;23.27;;;12.20;;
74656;SDS011;63185;45.642;13.764;2023-02-12T05:00:46;22.75;;;12.07;;
74656;SDS011;63185;45.642;13.764;2023-02-12T05:03:12;22.52;;;12.43;;
74656;SDS011;63185;45.642;13.764;2023-02-12T05:05:39;21.40;;;11.63;;
74656;SDS011;63185;45.642;13.764;2023-02-12T05:08:05;22.95;;;11.85;;
74656;SDS011;63185;45.642;13.764;2023-02-12T05:10:32;28.40;;;14.25;;
74656;SDS011;63185;45.642;13.764;2023-02-12T05:12:58;24.40;;;13.50;;
74656;SDS011;63185;45.642;13.764;2023-02-12T05:15:24;26.02;;;14.00;;
74656;SDS011;63185;45.642;13.764;2023-02-12T05:17:50;29.60;;;15.55;;
74656;SDS011;63185;45.642;13.764;2023-02-12T05:20:17;28.27;;;15.02;;
74656;SDS011;63185;45.642;13.764;2023-02-12T05:22:43;26.77;;;14.10;;
74656;SDS011;63185;45.642;13.764;2023-02-12T05:25:09;27.20;;;14.50;;
74656;SDS011;63185;45.642;13.764;2023-02-12T05:27:35;26.13;;;13.60;;
74656;SDS011;63185;45.642;13.764;2023-02-12T05:30:02;25.92;;;13.35;;
74656;SDS011;63185;45.642;13.764;2023-02-12T05:32:30;26.67;;;13.63;;
74656;SDS011;63185;45.642;13.764;2023-02-12T05:34:57;28.30;;;13.85;;
74656;SDS011;63185;45.642;13.764;2023-02-12T05:37:23;29.55;;;14.05;;
74656;SDS011;63185;45.642;13.764;2023-02-12T05:39:50;25.58;;;14.25;;
74656;SDS011;63185;45.642;13.764;2023-02-12T05:42:16;33.47;;;16.30;;
74656;SDS011;63185;45.642;13.764;2023-02-12T05:44:42;33.30;;;17.60;;
74656;SDS011;63185;45.642;13.764;2023-02-12T05:47:09;30.98;;;17.35;;
74656;SDS011;63185;45.642;13.764;2023-02-12T05:49:35;31.20;;;17.50;;
74656;SDS011;63185;45.642;13.764;2023-02-12T05:52:02;29.73;;;15.82;;
74656;SDS011;63185;45.642;13.764;2023-02-12T05:54:28;30.42;;;15.85;;
74656;SDS011;63185;45.642;13.764;2023-02-12T05:56:55;30.67;;;16.00;;
74656;SDS011;63185;45.642;13.764;2023-02-12T05:59:23;29.70;;;14.95;;
74656;SDS011;63185;45.642;13.764;2023-02-12T06:01:50;36.17;;;16.17;;
74656;SDS011;63185;45.642;13.764;2023-02-12T06:04:18;34.90;;;18.05;;
74656;SDS011;63185;45.642;13.764;2023-02-12T06:06:49;28.35;;;15.00;;
74656;SDS011;63185;45.642;13.764;2023-02-12T06:09:20;26.77;;;14.65;;
74656;SDS011;63185;45.642;13.764;2023-02-12T06:11:47;33.00;;;15.15;;
74656;SDS011;63185;45.642;13.764;2023-02-12T06:14:14;29.65;;;15.20;;
74656;SDS011;63185;45.642;13.764;2023-02-12T06:16:45;29.27;;;15.45;;
74656;SDS011;63185;45.642;13.764;2023-02-12T06:19:14;32.10;;;16.92;;
74656;SDS011;63185;45.642;13.764;2023-02-12T06:21:40;29.77;;;15.93;;
74656;SDS011;63185;45.642;13.764;2023-02-12T06:24:06;30.20;;;16.60;;
74656;SDS011;63185;45.642;13.764;2023-02-12T06:26:34;30.50;;;16.05;;
74656;SDS011;63185;45.642;13.764;2023-02-12T06:29:01;29.92;;;15.73;;
74656;SDS011;63185;45.642;13.764;2023-02-12T06:31:28;26.60;;;14.10;;
74656;SDS011;63185;45.642;13.764;2023-02-12T06:33:57;25.43;;;13.87;;
74656;SDS011;63185;45.642;13.764;2023-02-12T06:36:26;25.35;;;12.95;;
74656;SDS011;63185;45.642;13.764;2023-02-12T06:38:52;26.00;;;12.43;;
74656;SDS011;63185;45.642;13.764;2023-02-12T06:41:20;24.42;;;12.00;;
74656;SDS011;63185;45.642;13.764;2023-02-12T06:43:47;20.65;;;11.63;;
74656;SDS011;63185;45.642;13.764;2023-02-12T06:46:14;21.17;;;11.88;;
74656;SDS011;63185;45.642;13.764;2023-02-12T06:48:41;22.17;;;13.02;;
74656;SDS011;63185;45.642;13.764;2023-02-12T06:51:09;20.38;;;12.05;;
74656;SDS011;63185;45.642;13.764;2023-02-12T06:53:39;20.77;;;12.55;;
74656;SDS011;63185;45.642;13.764;2023-02-12T06:56:06;22.80;;;11.30;;
74656;SDS011;63185;45.642;13.764;2023-02-12T06:58:36;17.75;;;10.70;;
74656;SDS011;63185;45.642;13.764;2023-02-12T07:01:14;18.30;;;10.50;;
74656;SDS011;63185;45.642;13.764;2023-02-12T07:03:43;17.08;;;10.45;;
74656;SDS011;63185;45.642;13.764;2023-02-12T07:06:14;18.02;;;10.48;;
74656;SDS011;63185;45.642;13.764;2023-02-12T07:08:41;18.58;;;11.10;;
74656;SDS011;63185;45.642;13.764;2023-02-12T07:11:07;18.67;;;11.02;;
74656;SDS011;63185;45.642;13.764;2023-02-12T07:13:34;20.13;;;11.27;;
74656;SDS011;63185;45.642;13.764;2023-02-12T07:16:05;18.95;;;11.38;;
74656;SDS011;63185;45.642;13.764;2023-02-12T07:18:35;17.02;;;10.23;;
74656;SDS011;63185;45.642;13.764;2023-02-12T07:21:03;19.00;;;11.50;;
74656;SDS011;63185;45.642;13.764;2023-02-12T07:23:30;21.20;;;12.32;;
74656;SDS011;63185;45.642;13.764;2023-02-12T07:25:58;25.58;;;14.45;;
74656;SDS011;63185;45.642;13.764;2023-02-12T07:28:25;27.52;;;13.55;;
74656;SDS011;63185;45.642;13.764;2023-02-12T07:30:52;24.40;;;14.88;;
74656;SDS011;63185;45.642;13.764;2023-02-12T07:33:19;23.58;;;13.68;;
74656;SDS011;63185;45.642;13.764;2023-02-12T07:35:46;23.70;;;14.60;;
74656;SDS011;63185;45.642;13.764;2023-02-12T07:38:12;22.58;;;12.77;;
74656;SDS011;63185;45.642;13.764;2023-02-12T07:40:38;21.45;;;12.98;;
74656;SDS011;63185;45.642;13.764;2023-02-12T07:43:04;22.25;;;12.63;;
74656;SDS011;63185;45.642;13.764;2023-02-12T07:45:31;21.85;;;12.48;;
74656;SDS011;63185;45.642;13.764;2023-02-12T07:47:58;20.00;;;12.40;;
74656;SDS011;63185;45.642;13.764;2023-02-12T07:50:25;24.90;;;13.05;;
74656;SDS011;63185;45.642;13.764;2023-02-12T07:52:52;20.17;;;10.60;;
74656;SDS011;63185;45.642;13.764;2023-02-12T07:55:18;20.15;;;11.05;;
74656;SDS011;63185;45.642;13.764;2023-02-12T07:57:44;20.67;;;10.70;;
74656;SDS011;63185;45.642;13.764;2023-02-12T08:00:12;20.23;;;10.35;;
74656;SDS011;63185;45.642;13.764;2023-02-12T08:02:39;21.67;;;11.00;;
74656;SDS011;63185;45.642;13.764;2023-02-12T08:05:06;19.48;;;10.13;;
74656;SDS011;63185;45.642;13.764;2023-02-12T08:07:32;22.55;;;10.95;;
74656;SDS011;63185;45.642;13.764;2023-02-12T08:09:59;20.25;;;10.68;;
74656;SDS011;63185;45.642;13.764;2023-02-12T08:12:25;24.98;;;13.00;;
74656;SDS011;63185;45.642;13.764;2023-02-12T08:14:52;18.52;;;11.20;;
74656;SDS011;63185;45.642;13.764;2023-02-12T08:17:19;22.27;;;11.82;;
74656;SDS011;63185;45.642;13.764;2023-02-12T08:19:46;22.67;;;13.13;;
74656;SDS011;63185;45.642;13.764;2023-02-12T08:22:12;23.92;;;13.10;;
74656;SDS011;63185;45.642;13.764;2023-02-12T08:24:39;23.80;;;13.40;;
74656;SDS011;63185;45.642;13.764;2023-02-12T08:27:07;21.92;;;12.48;;
74656;SDS011;63185;45.642;13.764;2023-02-12T08:29:33;22.90;;;12.90;;
74656;SDS011;63185;45.642;13.764;2023-02-12T08:32:01;22.77;;;13.77;;
74656;SDS011;63185;45.642;13.764;2023-02-12T08:34:30;25.25;;;13.85;;
74656;SDS011;63185;45.642;13.764;2023-02-12T08:36:58;25.08;;;14.40;;
74656;SDS011;63185;45.642;13.764;2023-02-12T08:39:26;25.98;;;14.48;;
74656;SDS011;63185;45.642;13.764;2023-02-12T08:41:55;28.10;;;15.15;;
74656;SDS011;63185;45.642;13.764;2023-02-12T08:44:23;25.67;;;14.55;;
74656;SDS011;63185;45.642;13.764;2023-02-12T08:46:51;27.58;;;14.27;;
74656;SDS011;63185;45.642;13.764;2023-02-12T08:49:20;26.05;;;14.55;;
74656;SDS011;63185;45.642;13.764;2023-02-12T08:51:50;26.25;;;14.00;;
74656;SDS011;63185;45.642;13.764;2023-02-12T08:54:19;29.02;;;14.00;;
74656;SDS011;63185;45.642;13.764;2023-02-12T08:56:48;25.35;;;13.52;;
74656;SDS011;63185;45.642;13.764;2023-02-12T08:59:18;24.15;;;14.25;;
74656;SDS011;63185;45.642;13.764;2023-02-12T09:01:44;25.10;;;13.60;;
74656;SDS011;63185;45.642;13.764;2023-02-12T09:04:15;23.35;;;13.23;;
74656;SDS011;63185;45.642;13.764;2023-02-12T09:06:45;26.25;;;13.00;;
74656;SDS011;63185;45.642;13.764;2023-02-12T09:09:12;24.60;;;13.73;;
74656;SDS011;63185;45.642;13.764;2023-02-12T09:11:39;22.50;;;13.02;;
74656;SDS011;63185;45.642;13.764;2023-02-12T09:14:07;35.92;;;14.73;;
74656;SDS011;63185;45.642;13.764;2023-02-12T09:16:36;25.58;;;13.95;;
74656;SDS011;63185;45.642;13.764;2023-02-12T09:19:05;23.00;;;13.00;;
74656;SDS011;63185;45.642;13.764;2023-02-12T09:21:33;29.15;;;13.70;;
74656;SDS011;63185;45.642;13.764;2023-02-12T09:24:00;22.50;;;13.38;;
74656;SDS011;63185;45.642;13.764;2023-02-12T09:26:28;29.85;;;15.02;;
74656;SDS011;63185;45.642;13.764;2023-02-12T09:28:55;24.75;;;13.65;;
74656;SDS011;63185;45.642;13.764;2023-02-12T09:31:28;28.27;;;14.23;;
74656;SDS011;63185;45.642;13.764;2023-02-12T09:34:03;24.42;;;14.43;;
74656;SDS011;63185;45.642;13.764;2023-02-12T09:36:30;25.77;;;14.35;;
74656;SDS011;63185;45.642;13.764;2023-02-12T09:38:57;28.40;;;15.65;;
74656;SDS011;63185;45.642;13.764;2023-02-12T09:41:36;27.25;;;15.43;;
74656;SDS011;63185;45.642;13.764;2023-02-12T09:53:07;30.05;;;14.20;;
74656;SDS011;63185;45.642;13.764;2023-02-12T09:55:40;22.73;;;13.80;;
74656;SDS011;63185;45.642;13.764;2023-02-12T09:58:10;26.60;;;14.68;;
74656;SDS011;63185;45.642;13.764;2023-02-12T10:00:42;25.27;;;14.23;;
74656;SDS011;63185;45.642;13.764;2023-02-12T10:03:13;26.55;;;13.43;;
74656;SDS011;63185;45.642;13.764;2023-02-12T10:13:42;24.98;;;14.07;;
74656;SDS011;63185;45.642;13.764;2023-02-12T10:22:22;26.90;;;15.20;;
74656;SDS011;63185;45.642;13.764;2023-02-12T10:27:45;27.73;;;14.88;;
74656;SDS011;63185;45.642;13.764;2023-02-12T10:30:33;23.67;;;14.30;;
74656;SDS011;63185;45.642;13.764;2023-02-12T10:33:05;26.48;;;14.85;;
74656;SDS011;63185;45.642;13.764;2023-02-12T10:35:37;27.75;;;15.75;;
74656;SDS011;63185;45.642;13.764;2023-02-12T10:38:52;26.15;;;15.50;;
74656;SDS011;63185;45.642;13.764;2023-02-12T10:41:00;27.85;;;16.27;;
74656;SDS011;63185;45.642;13.764;2023-02-12T10:43:26;27.75;;;16.00;;
74656;SDS011;63185;45.642;13.764;2023-02-12T10:45:53;28.92;;;16.02;;
74656;SDS011;63185;45.642;13.764;2023-02-12T10:48:20;29.55;;;17.42;;
74656;SDS011;63185;45.642;13.764;2023-02-12T10:50:50;30.63;;;17.55;;
74656;SDS011;63185;45.642;13.764;2023-02-12T10:56:27;34.00;;;19.55;;
74656;SDS011;63185;45.642;13.764;2023-02-12T10:58:57;35.13;;;20.15;;
74656;SDS011;63185;45.642;13.764;2023-02-12T11:01:28;37.08;;;20.25;;
74656;SDS011;63185;45.642;13.764;2023-02-12T11:03:56;32.55;;;19.83;;
74656;SDS011;63185;45.642;13.764;2023-02-12T11:06:24;31.40;;;19.60;;
74656;SDS011;63185;45.642;13.764;2023-02-12T11:08:52;37.33;;;20.17;;
74656;SDS011;63185;45.642;13.764;2023-02-12T11:16:28;35.00;;;21.15;;
74656;SDS011;63185;45.642;13.764;2023-02-12T11:19:03;36.42;;;20.95;;
74656;SDS011;63185;45.642;13.764;2023-02-12T11:21:30;35.83;;;21.10;;
74656;SDS011;63185;45.642;13.764;2023-02-12T11:29:39;37.35;;;21.13;;
74656;SDS011;63185;45.642;13.764;2023-02-12T11:32:07;36.75;;;20.92;;
74656;SDS011;63185;45.642;13.764;2023-02-12T11:34:58;36.22;;;22.05;;
74656;SDS011;63185;45.642;13.764;2023-02-12T11:37:41;36.38;;;20.90;;
74656;SDS011;63185;45.642;13.764;2023-02-12T11:40:27;35.47;;;21.08;;
74656;SDS011;63185;45.642;13.764;2023-02-12T11:43:02;35.25;;;21.33;;
74656;SDS011;63185;45.642;13.764;2023-02-12T11:45:31;41.03;;;23.30;;
74656;SDS011;63185;45.642;13.764;2023-02-12T11:48:18;39.25;;;21.73;;
74656;SDS011;63185;45.642;13.764;2023-02-12T11:50:48;37.03;;;21.52;;
74656;SDS011;63185;45.642;13.764;2023-02-12T11:53:39;33.10;;;21.25;;
74656;SDS011;63185;45.642;13.764;2023-02-12T11:56:07;38.60;;;22.17;;
74656;SDS011;63185;45.642;13.764;2023-02-12T11:58:35;39.92;;;23.48;;
74656;SDS011;63185;45.642;13.764;2023-02-12T12:08:52;39.08;;;23.20;;
74656;SDS011;63185;45.642;13.764;2023-02-12T12:14:23;48.50;;;25.85;;
74656;SDS011;63185;45.642;13.764;2023-02-12T12:17:09;43.28;;;25.00;;
74656;SDS011;63185;45.642;13.764;2023-02-12T12:20:02;46.75;;;26.55;;
74656;SDS011;63185;45.642;13.764;2023-02-12T12:22:38;49.67;;;26.98;;
74656;SDS011;63185;45.642;13.764;2023-02-12T12:25:21;51.60;;;28.50;;
74656;SDS011;63185;45.642;13.764;2023-02-12T12:32:58;42.92;;;26.23;;
74656;SDS011;63185;45.642;13.764;2023-02-12T12:35:31;46.38;;;27.63;;
74656;SDS011;63185;45.642;13.764;2023-02-12T12:38:35;49.45;;;29.30;;
74656;SDS011;63185;45.642;13.764;2023-02-12T12:41:04;47.75;;;28.88;;
74656;SDS011;63185;45.642;13.764;2023-02-12T12:43:41;49.58;;;29.25;;
74656;SDS011;63185;45.642;13.764;2023-02-12T12:46:43;49.50;;;28.70;;
74656;SDS011;63185;45.642;13.764;2023-02-12T12:55:07;45.58;;;26.38;;
74656;SDS011;63185;45.642;13.764;2023-02-12T13:06:50;48.90;;;28.58;;
74656;SDS011;63185;45.642;13.764;2023-02-12T13:09:57;45.13;;;28.08;;
74656;SDS011;63185;45.642;13.764;2023-02-12T13:15:20;47.50;;;27.48;;
74656;SDS011;63185;45.642;13.764;2023-02-12T13:21:08;50.67;;;28.35;;
74656;SDS011;63185;45.642;13.764;2023-02-12T13:26:10;47.45;;;27.35;;
74656;SDS011;63185;45.642;13.764;2023-02-12T13:28:54;47.58;;;26.98;;
74656;SDS011;63185;45.642;13.764;2023-02-12T13:31:26;47.13;;;26.73;;
74656;SDS011;63185;45.642;13.764;2023-02-12T13:33:55;44.35;;;26.83;;
74656;SDS011;63185;45.642;13.764;2023-02-12T13:36:24;45.97;;;26.70;;
74656;SDS011;63185;45.642;13.764;2023-02-12T13:41:37;43.53;;;24.83;;
74656;SDS011;63185;45.642;13.764;2023-02-12T13:52:15;43.05;;;24.73;;
74656;SDS011;63185;45.642;13.764;2023-02-12T13:57:21;42.33;;;24.38;;
74656;SDS011;63185;45.642;13.764;2023-02-12T13:59:49;34.45;;;21.17;;
74656;SDS011;63185;45.642;13.764;2023-02-12T14:04:58;29.63;;;18.08;;
74656;SDS011;63185;45.642;13.764;2023-02-12T14:08:31;31.30;;;18.38;;
74656;SDS011;63185;45.642;13.764;2023-02-12T14:10:27;31.63;;;18.92;;
74656;SDS011;63185;45.642;13.764;2023-02-12T14:15:40;28.75;;;17.75;;
74656;SDS011;63185;45.642;13.764;2023-02-12T14:23:35;33.17;;;19.55;;
74656;SDS011;63185;45.642;13.764;2023-02-12T14:31:30;32.53;;;19.27;;
74656;SDS011;63185;45.642;13.764;2023-02-12T14:46:59;31.58;;;19.80;;
74656;SDS011;63185;45.642;13.764;2023-02-12T14:52:13;31.15;;;18.85;;
74656;SDS011;63185;45.642;13.764;2023-02-12T14:55:06;27.77;;;17.75;;
74656;SDS011;63185;45.642;13.764;2023-02-12T14:57:47;29.25;;;18.23;;
74656;SDS011;63185;45.642;13.764;2023-02-12T15:02:43;25.70;;;16.48;;
74656;SDS011;63185;45.642;13.764;2023-02-12T15:05:18;30.67;;;17.35;;
74656;SDS011;63185;45.642;13.764;2023-02-12T15:07:52;27.77;;;17.13;;
74656;SDS011;63185;45.642;13.764;2023-02-12T15:10:34;27.50;;;16.80;;
74656;SDS011;63185;45.642;13.764;2023-02-12T15:26:32;27.80;;;17.77;;
74656;SDS011;63185;45.642;13.764;2023-02-12T15:29:01;27.15;;;16.95;;
74656;SDS011;63185;45.642;13.764;2023-02-12T15:31:28;27.65;;;17.05;;
74656;SDS011;63185;45.642;13.764;2023-02-12T15:33:59;26.92;;;17.80;;
74656;SDS011;63185;45.642;13.764;2023-02-12T15:36:27;29.13;;;18.23;;
74656;SDS011;63185;45.642;13.764;2023-02-12T15:39:02;27.87;;;18.10;;
74656;SDS011;63185;45.642;13.764;2023-02-12T15:41:37;29.55;;;18.75;;
74656;SDS011;63185;45.642;13.764;2023-02-12T15:44:21;29.48;;;18.90;;
74656;SDS011;63185;45.642;13.764;2023-02-12T15:47:30;29.73;;;19.33;;
74656;SDS011;63185;45.642;13.764;2023-02-12T15:49:39;31.55;;;19.42;;
74656;SDS011;63185;45.642;13.764;2023-02-12T15:54:34;30.80;;;20.20;;
74656;SDS011;63185;45.642;13.764;2023-02-12T15:57:00;32.67;;;20.05;;
74656;SDS011;63185;45.642;13.764;2023-02-12T15:59:33;31.02;;;21.33;;
74656;SDS011;63185;45.642;13.764;2023-02-12T16:02:00;34.97;;;21.65;;
74656;SDS011;63185;45.642;13.764;2023-02-12T16:04:30;31.05;;;20.40;;
74656;SDS011;63185;45.642;13.764;2023-02-12T16:07:01;33.78;;;20.70;;
74656;SDS011;63185;45.642;13.764;2023-02-12T16:09:31;36.42;;;23.48;;
74656;SDS011;63185;45.642;13.764;2023-02-12T16:12:00;34.85;;;22.05;;
74656;SDS011;63185;45.642;13.764;2023-02-12T16:14:41;29.33;;;18.67;;
74656;SDS011;63185;45.642;13.764;2023-02-12T16:17:19;30.08;;;19.20;;
74656;SDS011;63185;45.642;13.764;2023-02-12T16:22:41;34.85;;;21.77;;
74656;SDS011;63185;45.642;13.764;2023-02-12T16:25:13;34.65;;;20.13;;
74656;SDS011;63185;45.642;13.764;2023-02-12T16:27:42;33.15;;;19.10;;
74656;SDS011;63185;45.642;13.764;2023-02-12T16:30:36;30.10;;;19.15;;
74656;SDS011;63185;45.642;13.764;2023-02-12T16:36:02;34.67;;;21.08;;
74656;SDS011;63185;45.642;13.764;2023-02-12T16:43:43;28.88;;;17.63;;
74656;SDS011;63185;45.642;13.764;2023-02-12T16:46:13;32.13;;;19.05;;
74656;SDS011;63185;45.642;13.764;2023-02-12T16:48:44;35.83;;;20.27;;
74656;SDS011;63185;45.642;13.764;2023-02-12T16:51:34;32.53;;;20.10;;
74656;SDS011;63185;45.642;13.764;2023-02-12T16:54:01;32.95;;;19.55;;
74656;SDS011;63185;45.642;13.764;2023-02-12T16:56:36;36.03;;;21.42;;
74656;SDS011;63185;45.642;13.764;2023-02-12T16:59:02;34.28;;;21.20;;
74656;SDS011;63185;45.642;13.764;2023-02-12T17:03:57;39.20;;;20.98;;
74656;SDS011;63185;45.642;13.764;2023-02-12T17:06:26;37.90;;;21.67;;
74656;SDS011;63185;45.642;13.764;2023-02-12T17:08:54;31.65;;;20.30;;
74656;SDS011;63185;45.642;13.764;2023-02-12T17:11:21;38.70;;;22.08;;
74656;SDS011;63185;45.642;13.764;2023-02-12T17:13:48;39.35;;;21.42;;
74656;SDS011;63185;45.642;13.764;2023-02-12T17:16:16;41.30;;;22.60;;
74656;SDS011;63185;45.642;13.764;2023-02-12T17:18:42;42.78;;;23.65;;
74656;SDS011;63185;45.642;13.764;2023-02-12T17:21:22;41.47;;;23.35;;
74656;SDS011;63185;45.642;13.764;2023-02-12T17:23:51;38.80;;;24.30;;
74656;SDS011;63185;45.642;13.764;2023-02-12T17:26:20;43.35;;;25.63;;
74656;SDS011;63185;45.642;13.764;2023-02-12T17:28:46;41.10;;;24.73;;
74656;SDS011;63185;45.642;13.764;2023-02-12T17:31:12;43.97;;;24.70;;
74656;SDS011;63185;45.642;13.764;2023-02-12T17:33:39;42.92;;;24.40;;
74656;SDS011;63185;45.642;13.764;2023-02-12T17:36:04;49.72;;;25.27;;
74656;SDS011;63185;45.642;13.764;2023-02-12T17:38:31;38.90;;;23.60;;
74656;SDS011;63185;45.642;13.764;2023-02-12T17:40:56;42.33;;;24.35;;
74656;SDS011;63185;45.642;13.764;2023-02-12T17:43:22;41.75;;;23.40;;
74656;SDS011;63185;45.642;13.764;2023-02-12T17:45:48;42.53;;;23.40;;